createdAt,value
2023-02-18T00:01:00.538Z,19.97
2023-02-18T00:03:27.926Z,19.20
2023-02-18T00:05:54.703Z,21.17
2023-02-18T00:08:21.719Z,21.13
2023-02-18T00:10:48.706Z,26.43
2023-02-18T00:13:15.202Z,17.17
2023-02-18T00:15:41.803Z,21.80
2023-02-18T00:18:08.362Z,26.87
2023-02-18T00:20:36.231Z,25.50
2023-02-18T00:23:03.564Z,24.10
2023-02-18T00:25:30.001Z,19.47
2023-02-18T00:27:56.486Z,25.77
2023-02-18T00:30:23.038Z,22.10
2023-02-18T00:32:49.574Z,22.23
2023-02-18T00:35:17.054Z,19.70
2023-02-18T00:37:43.643Z,17.33
2023-02-18T00:40:10.436Z,20.77
2023-02-18T00:42:37.020Z,23.87
2023-02-18T00:45:03.755Z,20.30
2023-02-18T00:47:30.192Z,22.00
2023-02-18T00:53:06.886Z,21.73
2023-02-18T00:55:33.362Z,24.13
2023-02-18T00:57:59.816Z,23.30
2023-02-18T01:00:26.488Z,23.33
2023-02-18T01:02:54.663Z,18.93
2023-02-18T01:05:21.306Z,24.63
2023-02-18T01:07:47.925Z,19.27
2023-02-18T01:10:14.513Z,16.93
2023-02-18T01:12:42.012Z,17.90
2023-02-18T01:15:09.104Z,15.27
2023-02-18T01:17:35.567Z,18.97
2023-02-18T01:20:02.186Z,14.47
2023-02-18T01:22:28.626Z,20.87
2023-02-18T01:24:58.240Z,22.50
2023-02-18T01:27:24.714Z,19.60
2023-02-18T01:29:51.187Z,19.67
2023-02-18T01:32:17.866Z,22.43
2023-02-18T01:34:44.573Z,22.73
2023-02-18T01:37:11.025Z,19.93
2023-02-18T01:39:38.182Z,16.27
2023-02-18T01:42:05.082Z,16.70
2023-02-18T01:44:41.878Z,19.47
2023-02-18T01:47:08.311Z,20.13
2023-02-18T01:49:36.251Z,18.43
2023-02-18T01:52:07.323Z,16.93
2023-02-18T01:54:40.590Z,18.17
2023-02-18T01:57:30.456Z,18.63
2023-02-18T01:59:59.883Z,15.67
2023-02-18T02:02:31.137Z,12.03
2023-02-18T02:05:05.082Z,14.60
2023-02-18T02:07:31.838Z,18.07
2023-02-18T02:09:59.929Z,11.83
2023-02-18T02:12:38.882Z,27.40
2023-02-18T02:15:11.814Z,11.37
2023-02-18T02:17:58.948Z,16.23
2023-02-18T02:20:47.534Z,14.30
2023-02-18T02:23:40.025Z,17.13
2023-02-18T02:26:24.288Z,13.47
2023-02-18T02:29:15.652Z,19.17
2023-02-18T02:32:10.138Z,16.80
2023-02-18T02:34:49.424Z,15.40
2023-02-18T02:37:31.864Z,16.27
2023-02-18T02:40:07.528Z,15.30
2023-02-18T02:43:02.680Z,17.83
2023-02-18T02:45:52.890Z,17.93
2023-02-18T02:48:49.449Z,20.27
2023-02-18T02:51:24.303Z,15.60
2023-02-18T02:53:50.798Z,20.67
2023-02-18T02:56:20.321Z,18.70
2023-02-18T02:58:53.930Z,21.07
2023-02-18T03:01:29.835Z,18.40
2023-02-18T03:04:24.119Z,24.40
2023-02-18T03:07:02.347Z,20.47
2023-02-18T03:09:44.002Z,17.20
2023-02-18T03:12:55.134Z,19.10
2023-02-18T03:15:27.961Z,20.00
2023-02-18T03:18:01.545Z,22.43
2023-02-18T03:20:32.116Z,20.37
2023-02-18T03:23:00.207Z,25.83
2023-02-18T03:25:26.769Z,22.00
2023-02-18T03:27:56.627Z,22.37
2023-02-18T03:30:30.680Z,26.60
2023-02-18T03:33:00.988Z,20.33
2023-02-18T03:35:27.702Z,23.27
2023-02-18T03:38:04.457Z,24.47
2023-02-18T03:40:31.712Z,20.90
2023-02-18T03:42:59.311Z,25.63
2023-02-18T03:45:26.823Z,26.17
2023-02-18T03:47:53.438Z,20.77
2023-02-18T03:50:20.072Z,24.77
2023-02-18T03:52:46.522Z,31.93
2023-02-18T03:55:13.391Z,31.13
2023-02-18T03:57:39.847Z,27.70
2023-02-18T04:00:07.419Z,26.50
2023-02-18T04:02:33.907Z,20.40
2023-02-18T04:05:00.403Z,23.00
2023-02-18T04:07:26.898Z,23.63
2023-02-18T04:09:53.436Z,20.23
2023-02-18T04:12:19.928Z,23.43
2023-02-18T04:14:46.406Z,26.97
2023-02-18T04:17:12.977Z,16.00
2023-02-18T04:19:39.428Z,27.50
2023-02-18T04:22:05.903Z,16.83
2023-02-18T04:24:32.357Z,17.73
2023-02-18T04:26:58.834Z,22.43
2023-02-18T04:29:25.288Z,20.50
2023-02-18T04:31:51.827Z,17.63
2023-02-18T04:34:18.330Z,16.60
2023-02-18T04:36:44.853Z,14.47
2023-02-18T04:39:11.329Z,15.20
2023-02-18T04:41:37.888Z,13.83
2023-02-18T04:44:04.354Z,11.43
2023-02-18T04:46:31.135Z,6.67
2023-02-18T04:48:57.640Z,8.20
2023-02-18T04:51:24.175Z,11.20
2023-02-18T04:53:50.630Z,5.27
2023-02-18T04:56:17.086Z,8.23
2023-02-18T04:58:43.574Z,8.27
2023-02-18T05:01:10.710Z,7.53
2023-02-18T05:03:37.222Z,7.83
2023-02-18T05:06:03.901Z,7.83
2023-02-18T05:08:30.410Z,6.50
2023-02-18T05:10:56.890Z,7.07
2023-02-18T05:13:23.447Z,4.00
2023-02-18T05:15:50.139Z,9.27
2023-02-18T05:18:16.675Z,9.27
2023-02-18T05:20:43.996Z,11.20
2023-02-18T05:23:10.539Z,8.13
2023-02-18T05:25:36.989Z,8.17
2023-02-18T05:28:03.557Z,6.53
2023-02-18T05:30:30.071Z,8.40
2023-02-18T05:32:56.590Z,10.53
2023-02-18T05:35:23.032Z,12.83
2023-02-18T05:37:49.532Z,8.17
2023-02-18T05:40:15.984Z,10.60
2023-02-18T05:42:42.474Z,14.43
2023-02-18T05:45:09.353Z,14.53
2023-02-18T05:47:35.823Z,10.17
2023-02-18T05:50:03.458Z,11.00
2023-02-18T05:52:29.930Z,15.00
2023-02-18T05:54:56.464Z,16.20
2023-02-18T05:57:22.971Z,16.00
2023-02-18T05:59:49.566Z,15.13
2023-02-18T06:02:16.054Z,17.50
2023-02-18T06:04:42.508Z,18.70
2023-02-18T06:07:09.174Z,16.30
2023-02-18T06:09:35.646Z,11.20
2023-02-18T06:12:02.235Z,11.20
2023-02-18T06:14:28.741Z,14.30
2023-02-18T06:16:55.191Z,13.40
2023-02-18T06:19:21.641Z,9.63
2023-02-18T06:21:48.109Z,12.97
2023-02-18T06:24:14.614Z,10.40
2023-02-18T06:26:41.094Z,6.83
2023-02-18T06:29:07.539Z,9.23
2023-02-18T06:31:34.028Z,3.83
2023-02-18T06:34:00.571Z,10.33
2023-02-18T06:36:27.073Z,8.43
2023-02-18T06:38:56.257Z,7.97
2023-02-18T06:41:22.989Z,10.03
2023-02-18T06:43:49.450Z,9.00
2023-02-18T06:46:15.913Z,8.97
2023-02-18T06:48:42.422Z,9.57
2023-02-18T06:51:08.941Z,6.77
2023-02-18T06:53:35.459Z,8.60
2023-02-18T06:56:01.913Z,10.43
2023-02-18T06:58:28.380Z,11.70
2023-02-18T07:00:54.834Z,8.77
2023-02-18T07:03:21.506Z,5.53
2023-02-18T07:05:48.064Z,10.00
2023-02-18T07:08:14.629Z,11.90
2023-02-18T07:10:41.271Z,12.80
2023-02-18T07:13:07.785Z,14.93
2023-02-18T07:15:34.277Z,14.50
2023-02-18T07:18:00.736Z,12.57
2023-02-18T07:20:27.335Z,16.10
2023-02-18T07:22:54.365Z,15.97
2023-02-18T07:25:23.189Z,13.20
2023-02-18T07:27:50.129Z,14.87
2023-02-18T07:30:16.988Z,12.77
2023-02-18T07:32:43.672Z,15.73
2023-02-18T07:35:14.092Z,15.10
2023-02-18T07:37:44.247Z,10.47
2023-02-18T07:40:13.341Z,17.07
2023-02-18T07:42:39.787Z,17.50
2023-02-18T07:45:06.596Z,18.10
2023-02-18T07:47:33.089Z,13.60
2023-02-18T07:49:59.556Z,12.27
2023-02-18T07:52:26.018Z,9.10
2023-02-18T07:54:52.448Z,14.70
2023-02-18T07:57:18.894Z,14.33
2023-02-18T07:59:45.357Z,11.97
2023-02-18T08:02:23.450Z,13.97
2023-02-18T08:04:50.087Z,13.27
2023-02-18T08:07:18.661Z,14.27
2023-02-18T08:09:45.232Z,12.00
2023-02-18T08:12:11.738Z,16.07
2023-02-18T08:14:38.433Z,15.40
2023-02-18T08:17:04.954Z,11.90
2023-02-18T08:19:31.660Z,15.40
2023-02-18T08:22:01.909Z,13.47
2023-02-18T08:24:28.425Z,13.37
2023-02-18T08:27:01.195Z,14.50
2023-02-18T08:29:28.102Z,12.13
2023-02-18T08:31:55.216Z,13.07
2023-02-18T08:34:21.749Z,12.90
2023-02-18T08:36:48.194Z,12.00
2023-02-18T08:39:14.681Z,11.07
2023-02-18T08:41:41.136Z,8.23
2023-02-18T08:44:07.689Z,9.63
2023-02-18T08:46:36.101Z,11.20
2023-02-18T08:49:04.715Z,9.53
2023-02-18T08:51:31.610Z,9.83
2023-02-18T08:53:59.373Z,8.27
2023-02-18T08:56:26.462Z,8.47
2023-02-18T08:58:53.041Z,8.80
2023-02-18T09:01:21.163Z,6.43
2023-02-18T09:03:49.067Z,9.13
2023-02-18T09:06:16.144Z,8.07
2023-02-18T09:08:42.766Z,7.97
2023-02-18T09:11:11.871Z,7.57
2023-02-18T09:13:38.801Z,6.97
2023-02-18T09:16:08.601Z,7.53
2023-02-18T09:18:36.098Z,6.40
2023-02-18T09:21:05.117Z,5.00
2023-02-18T09:23:33.132Z,5.80
2023-02-18T09:26:00.621Z,10.03
2023-02-18T09:28:27.292Z,10.30
2023-02-18T09:30:53.989Z,9.07
2023-02-18T09:33:20.761Z,7.27
2023-02-18T09:35:47.314Z,8.37
2023-02-18T09:38:16.732Z,6.73
2023-02-18T09:40:50.927Z,8.00
2023-02-18T09:43:43.863Z,7.03
2023-02-18T09:46:32.672Z,7.40
2023-02-18T09:49:04.713Z,6.20
2023-02-18T09:51:31.225Z,8.63
2023-02-18T09:53:57.861Z,6.20
2023-02-18T09:56:30.762Z,5.70
2023-02-18T09:58:58.978Z,7.00
2023-02-18T10:01:31.217Z,8.43
2023-02-18T10:04:04.327Z,6.17
2023-02-18T10:06:33.509Z,8.63
2023-02-18T10:09:05.474Z,5.73
2023-02-18T10:11:38.377Z,5.43
2023-02-18T10:14:10.044Z,5.50
2023-02-18T10:16:36.512Z,5.13
2023-02-18T10:19:33.947Z,4.83
2023-02-18T10:22:02.977Z,7.00
2023-02-18T10:24:35.924Z,8.70
2023-02-18T10:27:05.581Z,4.27
2023-02-18T10:29:32.374Z,4.80
2023-02-18T10:32:07.445Z,5.20
2023-02-18T10:34:41.671Z,5.83
2023-02-18T10:37:37.172Z,6.30
2023-02-18T10:40:09.238Z,9.33
2023-02-18T10:43:00.789Z,6.27
2023-02-18T10:45:38.818Z,5.23
2023-02-18T10:48:40.003Z,6.87
2023-02-18T10:51:17.744Z,9.53
2023-02-18T10:53:45.912Z,5.97
2023-02-18T10:56:40.633Z,7.90
2023-02-18T10:59:15.057Z,6.30
2023-02-18T11:01:43.037Z,15.17
2023-02-18T11:04:17.515Z,12.70
2023-02-18T11:06:46.903Z,8.23
2023-02-18T11:09:45.709Z,18.93
2023-02-18T11:12:34.775Z,14.03
2023-02-18T11:15:17.611Z,21.03
2023-02-18T11:17:46.951Z,5.87
2023-02-18T11:20:36.464Z,6.60
2023-02-18T11:23:06.040Z,3.97
2023-02-18T11:25:35.152Z,6.57
2023-02-18T11:28:13.869Z,5.83
2023-02-18T11:30:48.367Z,5.20
2023-02-18T11:33:26.232Z,6.43
2023-02-18T11:35:55.229Z,3.23
2023-02-18T11:38:43.240Z,6.30
2023-02-18T11:41:16.421Z,5.03
2023-02-18T11:43:51.482Z,4.50
2023-02-18T11:46:22.496Z,5.27
2023-02-18T11:48:51.951Z,6.30
2023-02-18T11:51:21.692Z,4.50
2023-02-18T11:54:25.451Z,3.53
2023-02-18T11:57:14.522Z,3.57
2023-02-18T11:59:43.192Z,2.80
2023-02-18T12:02:42.572Z,2.83
2023-02-18T12:05:21.009Z,2.40
2023-02-18T12:08:08.061Z,4.27
2023-02-18T12:10:42.297Z,3.40
2023-02-18T12:13:30.882Z,1.90
2023-02-18T12:16:23.119Z,1.47
2023-02-18T12:18:58.308Z,2.17
2023-02-18T12:21:34.354Z,6.33
2023-02-18T12:24:36.183Z,2.73
2023-02-18T12:27:11.621Z,1.50
2023-02-18T12:30:00.275Z,2.73
2023-02-18T12:32:54.787Z,2.10
2023-02-18T12:35:38.549Z,1.40
2023-02-18T12:38:13.367Z,1.33
2023-02-18T12:40:56.497Z,4.20
2023-02-18T12:43:59.100Z,1.73
2023-02-18T12:46:41.753Z,3.13
2023-02-18T12:49:26.771Z,6.07
2023-02-18T12:52:23.693Z,2.87
2023-02-18T12:55:34.705Z,2.10
2023-02-18T12:58:17.670Z,1.90
2023-02-18T13:01:06.842Z,1.60
2023-02-18T13:03:52.060Z,1.67
2023-02-18T13:06:40.913Z,1.90
2023-02-18T13:09:13.743Z,1.43
2023-02-18T13:11:43.134Z,2.00
2023-02-18T13:14:16.960Z,1.83
2023-02-18T13:16:46.361Z,1.40
2023-02-18T13:19:25.546Z,1.43
2023-02-18T13:21:54.873Z,1.57
2023-02-18T13:24:28.358Z,2.90
2023-02-18T13:27:03.557Z,4.30
2023-02-18T13:29:38.207Z,2.03
2023-02-18T13:32:16.321Z,2.30
2023-02-18T13:34:53.987Z,2.10
2023-02-18T13:37:29.655Z,1.30
2023-02-18T13:39:57.773Z,3.17
2023-02-18T13:42:31.721Z,3.37
2023-02-18T13:44:58.347Z,1.90
2023-02-18T13:47:38.510Z,3.17
2023-02-18T13:50:27.422Z,1.97
2023-02-18T13:53:14.290Z,2.10
2023-02-18T13:55:57.296Z,2.67
2023-02-18T13:58:29.758Z,3.50
2023-02-18T14:01:05.982Z,4.27
2023-02-18T14:03:45.304Z,3.03
2023-02-18T14:06:17.590Z,3.83
2023-02-18T14:08:44.973Z,4.53
2023-02-18T14:11:11.630Z,9.73
2023-02-18T14:13:49.183Z,7.53
2023-02-18T14:16:16.345Z,2.87
2023-02-18T14:18:43.026Z,2.00
2023-02-18T14:21:12.584Z,5.83
2023-02-18T14:23:59.953Z,4.83
2023-02-18T14:26:35.424Z,5.20
2023-02-18T14:29:06.951Z,2.83
2023-02-18T14:31:41.839Z,1.93
2023-02-18T14:34:32.969Z,3.70
2023-02-18T14:37:22.387Z,4.03
2023-02-18T14:40:10.864Z,4.73
2023-02-18T14:42:52.886Z,4.00
2023-02-18T14:45:40.300Z,3.30
2023-02-18T14:48:14.456Z,5.43
2023-02-18T14:50:43.047Z,4.10
2023-02-18T14:53:19.448Z,3.17
2023-02-18T14:55:49.076Z,2.87
2023-02-18T14:58:27.282Z,3.47
2023-02-18T15:00:53.945Z,2.37
2023-02-18T15:03:22.507Z,3.10
2023-02-18T15:05:53.320Z,3.30
2023-02-18T15:08:20.865Z,4.07
2023-02-18T15:10:52.446Z,4.63
2023-02-18T15:13:31.396Z,2.70
2023-02-18T15:16:01.269Z,3.50
2023-02-18T15:18:37.904Z,2.97
2023-02-18T15:21:10.498Z,2.60
2023-02-18T15:23:40.053Z,4.23
2023-02-18T15:26:10.113Z,3.73
2023-02-18T15:28:42.676Z,3.43
2023-02-18T15:31:15.106Z,6.37
2023-02-18T15:33:47.891Z,3.23
2023-02-18T15:36:15.901Z,3.70
2023-02-18T15:38:44.832Z,3.53
2023-02-18T15:41:16.771Z,3.50
2023-02-18T15:44:03.821Z,2.50
2023-02-18T15:46:32.386Z,5.00
2023-02-18T15:49:01.769Z,4.10
2023-02-18T15:51:30.153Z,2.07
2023-02-18T15:54:01.771Z,8.03
2023-02-18T15:56:36.165Z,12.43
2023-02-18T15:59:30.613Z,3.10
2023-02-18T16:02:09.128Z,2.20
2023-02-18T16:04:41.407Z,2.33
2023-02-18T16:07:31.089Z,2.63
2023-02-18T16:10:19.046Z,2.87
2023-02-18T16:12:50.248Z,2.13
2023-02-18T16:15:27.029Z,1.90
2023-02-18T16:17:53.634Z,2.20
2023-02-18T16:20:33.580Z,2.73
2023-02-18T16:23:03.630Z,2.20
2023-02-18T16:25:44.464Z,2.57
2023-02-18T16:28:25.813Z,2.80
2023-02-18T16:30:53.109Z,4.17
2023-02-18T16:33:22.842Z,3.80
2023-02-18T16:35:51.088Z,3.17
2023-02-18T16:38:20.279Z,4.67
2023-02-18T16:40:47.900Z,5.27
2023-02-18T16:43:16.953Z,5.33
2023-02-18T16:45:50.217Z,8.40
2023-02-18T16:48:42.190Z,7.37
2023-02-18T16:51:19.604Z,5.40
2023-02-18T16:53:47.874Z,4.53
2023-02-18T16:56:22.497Z,4.40
2023-02-18T16:58:52.510Z,3.80
2023-02-18T17:01:29.864Z,3.90
2023-02-18T17:04:02.223Z,4.00
2023-02-18T17:06:31.347Z,3.63
2023-02-18T17:08:58.641Z,6.20
2023-02-18T17:11:29.387Z,4.23
2023-02-18T17:13:58.399Z,4.53
2023-02-18T17:16:28.901Z,4.10
2023-02-18T17:18:57.176Z,5.47
2023-02-18T17:21:27.872Z,5.07
2023-02-18T17:23:55.536Z,5.03
2023-02-18T17:26:28.100Z,5.27
2023-02-18T17:28:57.648Z,6.33
2023-02-18T17:31:30.371Z,5.20
2023-02-18T17:33:59.742Z,6.13
2023-02-18T17:36:30.063Z,5.73
2023-02-18T17:39:01.550Z,5.67
2023-02-18T17:41:30.584Z,6.73
2023-02-18T17:43:59.898Z,5.93
2023-02-18T17:46:28.159Z,6.30
2023-02-18T17:48:59.254Z,6.70
2023-02-18T17:51:30.089Z,6.63
2023-02-18T17:53:58.643Z,5.67
2023-02-18T17:56:25.808Z,5.40
2023-02-18T17:58:55.419Z,6.30
2023-02-18T18:01:23.832Z,4.30
2023-02-18T18:03:51.489Z,5.93
2023-02-18T18:06:23.479Z,4.70
2023-02-18T18:08:50.618Z,4.93
2023-02-18T18:11:21.250Z,5.30
2023-02-18T18:13:50.563Z,5.30
2023-02-18T18:16:21.143Z,6.53
2023-02-18T18:18:50.358Z,4.97
2023-02-18T18:21:49.200Z,4.73
2023-02-18T18:24:17.168Z,5.17
2023-02-18T18:26:44.379Z,4.27
2023-02-18T18:29:11.337Z,3.73
2023-02-18T18:31:41.475Z,4.70
2023-02-18T18:34:10.209Z,5.07
2023-02-18T18:36:40.608Z,4.87
2023-02-18T18:39:09.948Z,5.37
2023-02-18T18:41:36.876Z,5.43
2023-02-18T18:44:06.475Z,4.37
2023-02-18T18:46:34.857Z,4.00
2023-02-18T18:49:08.382Z,3.90
2023-02-18T18:51:37.422Z,4.90
2023-02-18T18:54:04.307Z,6.97
2023-02-18T18:56:30.823Z,5.70
2023-02-18T18:58:57.556Z,5.70
2023-02-18T19:01:27.227Z,6.50
2023-02-18T19:03:54.269Z,4.00
2023-02-18T19:06:21.157Z,3.90
2023-02-18T19:08:47.998Z,5.63
2023-02-18T19:11:15.680Z,7.63
2023-02-18T19:13:42.884Z,8.07
2023-02-18T19:16:23.065Z,6.43
2023-02-18T19:18:49.542Z,7.63
2023-02-18T19:21:16.898Z,7.33
2023-02-18T19:23:43.584Z,9.77
2023-02-18T19:26:10.578Z,5.87
2023-02-18T19:28:37.457Z,8.47
2023-02-18T19:31:11.287Z,5.73
2023-02-18T19:33:39.453Z,6.83
2023-02-18T19:36:11.132Z,5.57
2023-02-18T19:38:38.953Z,6.00
2023-02-18T19:41:08.354Z,6.10
2023-02-18T19:43:35.239Z,4.97
2023-02-18T19:46:08.494Z,3.80
2023-02-18T19:48:34.961Z,4.27
2023-02-18T19:51:02.409Z,5.03
2023-02-18T19:53:29.060Z,4.97
2023-02-18T19:56:02.276Z,7.43
2023-02-18T19:58:29.063Z,6.60
2023-02-18T20:00:56.730Z,8.37
2023-02-18T20:03:23.214Z,5.90
2023-02-18T20:05:49.737Z,5.27
2023-02-18T20:08:16.193Z,6.43
2023-02-18T20:10:45.979Z,7.27
2023-02-18T20:13:12.602Z,10.30
2023-02-18T20:15:40.428Z,5.73
2023-02-18T20:18:07.837Z,9.20
2023-02-18T20:20:34.516Z,5.27
2023-02-18T20:23:01.625Z,5.93
2023-02-18T20:25:30.005Z,7.53
2023-02-18T20:28:01.228Z,6.30
2023-02-18T20:30:28.713Z,7.70
2023-02-18T20:32:58.353Z,7.30
2023-02-18T20:35:25.673Z,6.93
2023-02-18T20:37:53.243Z,8.60
2023-02-18T20:40:19.960Z,5.47
2023-02-18T20:42:49.849Z,5.33
2023-02-18T20:45:18.890Z,10.60
2023-02-18T20:47:45.443Z,11.60
2023-02-18T20:50:12.094Z,9.10
2023-02-18T20:52:38.776Z,8.33
2023-02-18T20:55:06.974Z,7.73
2023-02-18T20:57:33.512Z,9.83
2023-02-18T21:00:00.331Z,12.57
2023-02-18T21:02:28.160Z,8.13
2023-02-18T21:04:58.237Z,9.50
2023-02-18T21:07:24.881Z,9.37
2023-02-18T21:09:51.785Z,7.83
2023-02-18T21:12:18.496Z,11.73
2023-02-18T21:14:45.215Z,8.33
2023-02-18T21:17:11.898Z,13.10
2023-02-18T21:19:39.219Z,8.03
2023-02-18T21:22:05.827Z,12.20
2023-02-18T21:24:32.399Z,10.70
2023-02-18T21:26:58.984Z,8.97
2023-02-18T21:29:25.892Z,11.63
2023-02-18T21:31:52.585Z,11.13
2023-02-18T21:34:19.310Z,12.57
2023-02-18T21:36:47.085Z,13.17
2023-02-18T21:39:13.717Z,11.87
2023-02-18T21:41:41.288Z,18.37
2023-02-18T21:44:08.918Z,12.60
2023-02-18T21:46:36.760Z,14.57
2023-02-18T21:49:10.867Z,15.40
2023-02-18T21:52:08.196Z,14.83
2023-02-18T21:54:44.594Z,20.00
2023-02-18T21:57:20.013Z,14.43
2023-02-18T21:59:46.810Z,14.67
2023-02-18T22:02:22.011Z,11.27
2023-02-18T22:04:50.677Z,13.93
2023-02-18T22:07:18.944Z,11.80
2023-02-18T22:09:48.383Z,8.40
2023-02-18T22:12:16.006Z,10.93
2023-02-18T22:14:43.168Z,11.90
2023-02-18T22:17:10.081Z,8.87
2023-02-18T22:19:36.874Z,8.50
2023-02-18T22:22:03.891Z,9.30
2023-02-18T22:24:31.109Z,9.83
2023-02-18T22:27:01.266Z,11.77
2023-02-18T22:29:29.724Z,7.37
2023-02-18T22:31:56.684Z,13.87
2023-02-18T22:34:23.962Z,14.07
2023-02-18T22:36:51.279Z,14.33
2023-02-18T22:39:18.331Z,13.00
2023-02-18T22:41:45.923Z,11.73
2023-02-18T22:44:14.258Z,14.90
2023-02-18T22:46:41.092Z,12.60
2023-02-18T22:49:09.787Z,17.17
2023-02-18T22:51:38.659Z,14.33
2023-02-18T22:54:08.564Z,11.27
2023-02-18T22:56:35.286Z,15.97
2023-02-18T22:59:02.210Z,12.73
2023-02-18T23:01:32.038Z,13.03
2023-02-18T23:04:07.067Z,11.70
2023-02-18T23:06:34.977Z,9.87
2023-02-18T23:09:01.935Z,9.87
2023-02-18T23:11:28.563Z,12.93
2023-02-18T23:14:14.668Z,9.73
2023-02-18T23:17:00.283Z,10.10
2023-02-18T23:19:28.228Z,11.63
2023-02-18T23:21:54.958Z,17.17
2023-02-18T23:24:21.863Z,13.00
2023-02-18T23:26:48.826Z,9.13
2023-02-18T23:29:16.088Z,10.17
2023-02-18T23:31:42.865Z,11.80
2023-02-18T23:34:16.651Z,11.40
2023-02-18T23:36:44.265Z,12.80
2023-02-18T23:39:13.449Z,11.53
2023-02-18T23:41:39.958Z,11.97
2023-02-18T23:44:08.240Z,9.07
2023-02-18T23:46:35.182Z,10.27
2023-02-18T23:49:01.738Z,15.83
2023-02-18T23:51:29.764Z,9.90
2023-02-18T23:53:56.558Z,9.30
2023-02-18T23:56:27.239Z,10.23
2023-02-18T23:58:57.432Z,16.23
